Time;durP1;ratioP1;P1;durP2;ratioP2;P2;SDS_P1;SDS_P2;PMS_P1;PMS_P2;Temp;Humidity;BMP_temperature;BMP_pressure;BME280_temperature;BME280_humidity;BME280_pressure;Samples;Min_cycle;Max_cycle;Signal;HPM_P1;HPM_P2
2022/06/12 00:00:59;;;;;;;11.65;8.08;;;;;;;14.60;65.33;100782.97;1702138;84;27328;-69
2022/06/12 00:03:28;;;;;;;9.68;6.95;;;;;;;14.57;65.40;100782.47;1702719;83;25685;-69
2022/06/12 00:05:58;;;;;;;8.93;7.00;;;;;;;14.55;65.38;100781.97;1704924;84;25830;-69
2022/06/12 00:08:29;;;;;;;9.28;7.55;;;;;;;14.52;65.27;100776.37;1704866;84;25620;-69
2022/06/12 00:10:58;;;;;;;8.50;7.00;;;;;;;14.47;65.18;100781.45;1704927;84;26098;-70
2022/06/12 00:13:35;;;;;;;9.48;7.20;;;;;;;14.39;65.22;100771.38;1704782;84;33202;-68
2022/06/12 00:16:05;;;;;;;9.93;7.28;;;;;;;14.33;65.21;100772.08;1704317;84;25491;-68
2022/06/12 00:18:33;;;;;;;12.88;7.55;;;;;;;14.27;65.75;100772.57;1704890;84;25400;-69
2022/06/12 00:21:12;;;;;;;9.83;7.30;;;;;;;14.17;65.47;100773.72;1704720;84;25662;-70
2022/06/12 00:23:49;;;;;;;10.28;7.22;;;;;;;14.13;65.49;100775.47;1704967;84;25505;-69
2022/06/12 00:26:29;;;;;;;10.90;7.28;;;;;;;14.10;65.94;100769.33;1704815;84;27517;-69
2022/06/12 00:29:00;;;;;;;10.18;7.30;;;;;;;14.05;65.93;100768.92;1704693;84;25772;-69
2022/06/12 00:31:29;;;;;;;13.00;7.22;;;;;;;14.00;66.01;100769.88;1704195;84;26072;-68
2022/06/12 00:33:56;;;;;;;10.00;7.00;;;;;;;13.98;66.13;100772.69;1705042;84;25464;-69
2022/06/12 00:36:22;;;;;;;9.75;7.67;;;;;;;13.94;66.10;100771.14;1704615;84;25384;-68
2022/06/12 00:38:48;;;;;;;14.85;7.12;;;;;;;13.91;66.32;100770.45;1704944;84;27364;-68
2022/06/12 00:41:15;;;;;;;10.53;7.12;;;;;;;13.89;67.02;100769.95;1704307;84;26203;-69
2022/06/12 00:43:41;;;;;;;11.20;6.97;;;;;;;13.87;67.02;100765.96;1704840;84;25729;-69
2022/06/12 00:46:08;;;;;;;11.20;7.55;;;;;;;13.86;66.82;100770.61;1705065;84;26425;-69
2022/06/12 00:48:38;;;;;;;10.93;7.33;;;;;;;13.82;66.96;100770.45;1705191;84;25582;-69
2022/06/12 00:51:07;;;;;;;;;;;;;;;13.81;67.42;100771.56;1707858;84;27350;-68
2022/06/12 00:53:37;;;;;;;;;;;;;;;13.80;67.41;100773.23;1707715;84;25766;-69
2022/06/12 00:56:07;;;;;;;;;;;;;;;13.78;67.75;100774.12;1682086;82;25620;-69
2022/06/12 00:58:41;;;;;;;9.75;7.78;;;;;;;13.73;67.93;100776.42;1676841;85;25709;-69
2022/06/12 01:01:13;;;;;;;8.98;7.55;;;;;;;13.69;67.72;100774.65;1676815;85;25486;-69
2022/06/12 01:06:33;;;;;;;14.70;8.15;;;;;;;13.65;67.86;100774.48;1676262;84;27866;-69
2022/06/12 01:08:51;;;;;;;11.90;7.60;;;;;;;13.58;67.80;100770.09;1674183;85;25440;-68
2022/06/12 01:11:22;;;;;;;9.73;7.47;;;;;;;13.57;68.03;100771.19;1674065;85;25794;-68
2022/06/12 01:13:46;;;;;;;9.15;7.10;;;;;;;13.54;68.12;100769.92;1673667;85;25635;-69
2022/06/12 01:16:17;;;;;;;11.50;7.65;;;;;;;13.50;68.06;100767.61;1674024;85;27393;-68
2022/06/12 01:18:49;;;;;;;10.98;7.47;;;;;;;13.46;68.08;100762.55;1673996;85;25636;-68
2022/06/12 01:21:53;;;;;;;8.15;6.42;;;;;;;13.44;68.38;100764.79;1674109;85;25456;-69
2022/06/12 01:24:59;;;;;;;9.88;6.62;;;;;;;13.42;67.99;100767.03;1673977;85;27813;-68
2022/06/12 01:28:09;;;;;;;11.38;7.90;;;;;;;13.40;68.38;100765.16;1674084;85;25745;-68
2022/06/12 01:31:13;;;;;;;19.37;7.17;;;;;;;13.38;68.21;100763.33;1674161;85;27330;-69
2022/06/12 01:33:50;;;;;;;10.13;7.33;;;;;;;13.33;68.17;100768.38;1673822;85;25559;-69
2022/06/12 01:36:22;;;;;;;10.70;6.83;;;;;;;13.29;68.24;100765.20;1665988;85;25643;-68
2022/06/12 01:39:22;;;;;;;9.25;6.67;;;;;;;13.26;68.37;100767.98;1673620;85;25701;-68
2022/06/12 01:41:58;;;;;;;10.82;6.97;;;;;;;13.23;68.45;100762.63;1674108;85;25389;-69
2022/06/12 01:44:41;;;;;;;11.03;6.87;;;;;;;13.18;68.45;100764.70;1681002;84;27658;-72
2022/06/12 01:47:22;;;;;;;10.65;7.53;;;;;;;13.13;68.56;100762.10;1697899;82;26696;-67
2022/06/12 01:50:09;;;;;;;11.12;7.00;;;;;;;13.12;68.59;100764.59;1700809;82;25700;-67
2022/06/12 01:52:51;;;;;;;16.27;8.00;;;;;;;13.08;68.68;100760.34;1669494;85;26296;-67
2022/06/12 01:55:37;;;;;;;10.78;6.80;;;;;;;13.05;68.68;100760.41;1669016;85;25775;-70
2022/06/12 01:58:09;;;;;;;12.82;7.53;;;;;;;13.03;68.94;100761.84;1669392;85;28052;-67
2022/06/12 02:00:37;;;;;;;9.10;7.28;;;;;;;13.00;68.84;100756.47;1668934;84;25647;-69
2022/06/12 02:03:34;;;;;;;8.18;6.95;;;;;;;12.98;68.99;100756.56;1669463;84;26366;-68
2022/06/12 02:06:11;;;;;;;9.25;7.30;;;;;;;12.95;69.06;100755.26;1643466;87;26532;-70
2022/06/12 02:08:51;;;;;;;9.48;7.65;;;;;;;12.93;69.12;100758.84;1643585;87;25794;-68
2022/06/12 02:14:09;;;;;;;11.22;8.38;;;;;;;12.91;69.67;100758.37;1565193;91;25756;-68
2022/06/12 02:16:38;;;;;;;;;;;;;;;12.90;69.75;100754.04;1538865;93;25648;-69
2022/06/12 02:19:15;;;;;;;12.55;7.72;;;;;;;12.91;69.87;100755.66;1539932;93;25835;-69
2022/06/12 02:21:50;;;;;;;8.73;7.75;;;;;;;12.90;69.60;100754.04;1550304;92;25848;-68
2022/06/12 02:24:33;;;;;;;11.15;8.75;;;;;;;12.88;69.89;100754.91;1565245;91;27349;-68
2022/06/12 02:27:14;;;;;;;13.20;8.40;;;;;;;12.87;69.95;100758.73;1565170;91;25838;-69
2022/06/12 02:30:00;;;;;;;13.22;8.65;;;;;;;12.87;69.87;100756.02;1588481;90;25625;-67
2022/06/12 02:32:50;;;;;;;10.23;8.65;;;;;;;12.86;69.82;100756.58;1581024;90;25961;-69
2022/06/12 02:35:21;;;;;;;11.40;8.03;;;;;;;12.84;69.69;100763.45;1569910;91;25648;-68
2022/06/12 02:37:58;;;;;;;13.00;9.30;;;;;;;12.82;69.69;100757.51;1574408;91;27428;-69
2022/06/12 02:40:39;;;;;;;10.03;8.98;;;;;;;12.81;69.81;100767.58;1589835;90;25652;-69
2022/06/12 02:43:13;;;;;;;11.97;9.48;;;;;;;12.78;69.80;100758.70;1588914;90;25561;-69
2022/06/12 02:46:02;;;;;;;14.10;10.55;;;;;;;12.77;69.93;100765.79;1589896;90;25770;-68
2022/06/12 02:48:30;;;;;;;11.48;9.73;;;;;;;12.75;70.12;100759.31;1590112;90;25573;-67
2022/06/12 02:51:23;;;;;;;11.45;9.08;;;;;;;12.70;69.87;100764.88;1617988;85;28132;-67
2022/06/12 02:54:06;;;;;;;12.70;8.93;;;;;;;12.68;70.02;100762.50;1673362;85;25794;-69
2022/06/12 02:56:50;;;;;;;10.75;8.63;;;;;;;12.66;70.21;100763.91;1673926;85;25407;-68
2022/06/12 02:59:35;;;;;;;11.15;8.35;;;;;;;12.64;70.46;100761.50;1673975;85;25857;-69
2022/06/12 03:02:19;;;;;;;12.13;8.93;;;;;;;12.66;70.60;100761.20;1674175;85;25762;-69
2022/06/12 03:04:54;;;;;;;11.55;8.33;;;;;;;12.67;70.86;100761.45;1684896;84;27417;-68
2022/06/12 03:07:21;;;;;;;9.55;8.60;;;;;;;12.67;70.76;100757.38;1713730;83;25813;-69
2022/06/12 03:09:47;;;;;;;10.48;8.70;;;;;;;12.67;70.77;100759.53;1713901;83;25723;-69
2022/06/12 03:12:14;;;;;;;11.55;8.90;;;;;;;12.67;70.79;100754.10;1713932;83;25688;-68
2022/06/12 03:14:41;;;;;;;11.83;9.25;;;;;;;12.70;70.84;100755.37;1714032;83;25643;-69
2022/06/12 03:17:07;;;;;;;11.45;8.90;;;;;;;12.71;70.89;100758.34;1691691;83;26895;-69
2022/06/12 03:19:42;;;;;;;11.20;8.75;;;;;;;12.71;71.08;100756.42;1713939;83;25681;-70
2022/06/12 03:22:43;;;;;;;10.48;9.43;;;;;;;12.70;71.05;100756.73;1713985;83;25645;-69
2022/06/12 03:25:38;;;;;;;11.18;8.90;;;;;;;12.71;71.31;100756.42;1713904;83;25833;-68
2022/06/12 03:28:28;;;;;;;12.45;9.38;;;;;;;12.74;71.71;100753.66;1713991;83;25653;-69
2022/06/12 03:31:05;;;;;;;11.53;8.75;;;;;;;12.78;71.68;100757.34;1713987;83;27963;-67
2022/06/12 03:33:49;;;;;;;13.43;9.40;;;;;;;12.81;71.84;100758.08;1712284;83;25815;-69
2022/06/12 03:36:32;;;;;;;12.78;10.50;;;;;;;12.83;72.05;100760.48;1713763;83;25648;-69
2022/06/12 03:39:35;;;;;;;15.35;10.58;;;;;;;12.88;72.58;100757.06;1687885;83;25780;-69
2022/06/12 03:42:10;;;;;;;12.95;9.73;;;;;;;12.94;72.65;100756.92;1712376;83;25709;-68
2022/06/12 03:44:47;;;;;;;11.60;9.30;;;;;;;13.01;72.93;100755.37;1713360;83;28136;-67
2022/06/12 03:47:29;;;;;;;11.70;9.38;;;;;;;13.08;73.19;100754.35;1713951;83;25792;-69
2022/06/12 03:50:15;;;;;;;14.07;9.95;;;;;;;13.18;73.37;100752.48;1713898;83;25713;-68
2022/06/12 03:52:59;;;;;;;12.25;9.93;;;;;;;13.26;73.88;100765.27;1714097;83;25731;-68
2022/06/12 03:58:26;;;;;;;13.72;10.75;;;;;;;13.47;74.23;100761.98;1714130;83;27531;-68
2022/06/12 04:00:52;;;;;;;13.45;11.18;;;;;;;13.58;74.61;100770.88;1713584;83;25795;-69
2022/06/12 04:03:27;;;;;;;19.37;11.45;;;;;;;13.68;74.97;100770.35;1714001;83;25737;-68
2022/06/12 04:06:02;;;;;;;17.85;11.90;;;;;;;13.79;75.28;100767.55;1713657;83;25800;-68
2022/06/12 04:08:38;;;;;;;24.55;11.90;;;;;;;13.91;75.59;100769.09;1628204;87;25764;-68
2022/06/12 04:11:09;;;;;;;17.67;12.00;;;;;;;14.03;75.78;100771.17;1628299;88;27579;-68
2022/06/12 04:13:37;;;;;;;17.37;11.50;;;;;;;14.17;76.47;100766.35;1628178;88;26027;-68
2022/06/12 04:16:27;;;;;;;14.70;11.40;;;;;;;14.31;76.71;100767.53;1628284;88;25906;-69
2022/06/12 04:18:55;;;;;;;14.68;11.20;;;;;;;14.47;76.69;100773.28;1628287;88;25812;-69
2022/06/12 04:21:30;;;;;;;16.02;11.83;;;;;;;14.64;76.89;100777.10;1628337;88;25789;-69
2022/06/12 04:24:07;;;;;;;17.98;11.95;;;;;;;14.79;76.92;100780.66;1628129;88;27352;-69
2022/06/12 04:26:39;;;;;;;18.07;11.90;;;;;;;14.94;77.05;100773.31;1627898;88;25944;-68
2022/06/12 04:29:17;;;;;;;14.18;11.18;;;;;;;15.12;76.96;100770.53;1628243;88;25576;-69
2022/06/12 04:31:48;;;;;;;12.75;11.30;;;;;;;15.27;76.80;100771.34;1628171;88;25753;-69
2022/06/12 04:34:22;;;;;;;14.35;11.28;;;;;;;15.43;77.02;100770.20;1628189;88;25743;-69
2022/06/12 04:36:54;;;;;;;17.82;11.95;;;;;;;15.60;76.86;100773.38;1628191;88;28214;-69
2022/06/12 04:39:25;;;;;;;14.60;10.98;;;;;;;15.79;76.74;100776.25;1628040;88;25671;-69
2022/06/12 04:41:52;;;;;;;14.23;11.63;;;;;;;15.97;76.72;100779.63;1628150;88;25830;-69
2022/06/12 04:44:18;;;;;;;16.32;11.48;;;;;;;16.16;76.96;100777.23;1628191;88;25810;-69
2022/06/12 04:46:49;;;;;;;14.18;10.80;;;;;;;16.36;77.06;100776.16;1702145;83;25487;-69
2022/06/12 04:49:20;;;;;;;13.98;9.75;;;;;;;16.57;77.30;100775.54;1713471;83;27443;-69
2022/06/12 04:51:48;;;;;;;13.83;9.53;;;;;;;16.76;76.70;100776.37;1713288;83;25430;-69
2022/06/12 04:54:16;;;;;;;12.75;9.53;;;;;;;16.95;76.20;100777.80;1713642;83;25707;-69
2022/06/12 04:56:42;;;;;;;13.90;9.18;;;;;;;17.12;75.74;100782.25;1713425;83;25723;-69
2022/06/12 04:59:11;;;;;;;10.10;8.40;;;;;;;17.31;75.69;100777.56;1713560;83;25582;-69
2022/06/12 05:01:37;;;;;;;14.95;8.98;;;;;;;17.46;74.83;100778.81;1713744;83;27304;-69
2022/06/12 05:04:05;;;;;;;12.53;8.78;;;;;;;17.59;74.79;100772.19;1713420;83;25786;-69
2022/06/12 05:06:32;;;;;;;11.60;8.78;;;;;;;17.73;74.39;100781.39;1713496;83;25481;-69
2022/06/12 05:09:01;;;;;;;12.03;8.60;;;;;;;17.85;73.81;100780.56;1713528;83;25755;-69
2022/06/12 05:11:28;;;;;;;11.22;8.33;;;;;;;17.94;72.89;100782.61;1713604;83;25455;-69
2022/06/12 05:13:54;;;;;;;8.95;8.03;;;;;;;18.04;72.80;100774.48;1713538;83;26841;-69
2022/06/12 05:16:26;;;;;;;10.65;7.87;;;;;;;18.15;72.43;100779.70;1713371;83;25701;-69
2022/06/12 05:18:52;;;;;;;8.18;6.70;;;;;;;18.24;71.98;100776.81;1713444;83;25697;-69
2022/06/12 05:21:18;;;;;;;9.03;7.30;;;;;;;18.35;71.67;100778.45;1713557;83;25766;-68
2022/06/12 05:23:45;;;;;;;9.08;6.30;;;;;;;18.45;71.34;100776.58;1713771;83;25419;-68
2022/06/12 05:26:16;;;;;;;8.13;5.70;;;;;;;18.56;70.75;100780.41;1713560;83;27342;-68
2022/06/12 05:28:43;;;;;;;7.85;6.45;;;;;;;18.70;70.42;100784.67;1713435;83;25754;-69
2022/06/12 05:31:09;;;;;;;6.53;4.85;;;;;;;18.82;69.94;100781.84;1713631;83;25463;-69
2022/06/12 05:33:36;;;;;;;8.10;5.03;;;;;;;18.98;69.03;100787.34;1713587;83;25646;-69
2022/06/12 05:36:05;;;;;;;7.28;4.50;;;;;;;19.11;68.05;100786.70;1713511;83;25664;-69
2022/06/12 05:38:32;;;;;;;10.50;4.92;;;;;;;19.24;67.15;100789.56;1713779;83;33032;-70
2022/06/12 05:40:59;;;;;;;5.62;4.60;;;;;;;19.36;66.90;100786.70;1713444;83;25719;-69
2022/06/12 05:43:25;;;;;;;5.47;4.33;;;;;;;19.51;66.93;100789.76;1713569;83;25673;-69
2022/06/12 05:45:51;;;;;;;5.20;4.15;;;;;;;19.69;66.23;100786.05;1713561;83;26247;-70
2022/06/12 05:48:20;;;;;;;7.17;3.83;;;;;;;19.84;65.19;100782.48;1713651;83;25751;-70
2022/06/12 05:50:54;;;;;;;6.50;4.42;;;;;;;19.97;64.09;100787.24;1713833;83;28191;-69
2022/06/12 05:53:24;;;;;;;5.33;4.22;;;;;;;20.11;63.96;100784.02;1713528;83;25650;-70
2022/06/12 05:55:52;;;;;;;5.00;3.90;;;;;;;20.23;62.89;100790.73;1713569;83;25694;-70
2022/06/12 05:58:21;;;;;;;6.28;3.75;;;;;;;20.38;62.72;100786.86;1713475;83;25677;-70
2022/06/12 06:00:48;;;;;;;8.15;4.37;;;;;;;20.52;62.28;100781.65;1713876;83;25652;-70
2022/06/12 06:03:15;;;;;;;7.97;3.75;;;;;;;20.67;62.02;100779.41;1713684;83;27531;-70
2022/06/12 06:05:44;;;;;;;6.45;4.30;;;;;;;20.87;61.86;100780.70;1713483;83;25614;-70
2022/06/12 06:08:11;;;;;;;8.25;4.47;;;;;;;21.07;61.60;100781.42;1713673;83;25589;-69
2022/06/12 06:10:38;;;;;;;7.58;4.55;;;;;;;21.26;60.80;100784.06;1713588;83;25865;-69
2022/06/12 06:13:05;;;;;;;4.67;3.92;;;;;;;21.47;60.65;100781.48;1713519;83;25491;-70
2022/06/12 06:15:31;;;;;;;6.78;4.33;;;;;;;21.70;60.03;100784.73;1713532;83;27398;-70
2022/06/12 06:17:57;;;;;;;4.00;3.47;;;;;;;21.86;59.13;100784.53;1713444;83;25431;-70
2022/06/12 06:20:28;;;;;;;6.15;4.33;;;;;;;22.01;58.82;100787.10;1713471;81;25741;-69
2022/06/12 06:22:55;;;;;;;5.65;3.67;;;;;;;22.13;58.36;100786.63;1713602;83;25610;-69
2022/06/12 06:25:25;;;;;;;5.17;3.50;;;;;;;22.28;57.52;100790.38;1713669;83;25443;-70
2022/06/12 06:27:51;;;;;;;5.17;3.12;;;;;;;22.34;57.04;100784.74;1713537;83;27483;-70
2022/06/12 06:30:20;;;;;;;5.53;3.95;;;;;;;22.48;57.50;100783.50;1713654;83;25750;-70
2022/06/12 06:32:46;;;;;;;12.78;7.30;;;;;;;22.64;56.06;100783.84;1713585;83;25487;-69
2022/06/12 06:35:13;;;;;;;6.12;4.40;;;;;;;22.82;56.67;100781.26;1713479;83;25836;-70
2022/06/12 06:37:41;;;;;;;4.70;2.72;;;;;;;23.10;55.94;100784.84;1713595;83;25640;-69
2022/06/12 06:40:12;;;;;;;4.03;2.95;;;;;;;23.33;54.96;100789.34;1713459;83;27384;-68
2022/06/12 06:42:38;;;;;;;4.83;2.50;;;;;;;23.49;54.22;100782.34;1713592;83;25463;-68
2022/06/12 06:47:52;;;;;;;3.45;2.27;;;;;;;23.77;53.62;100783.69;1713604;83;26385;-67
2022/06/12 06:50:21;;;;;;;3.67;2.22;;;;;;;23.93;52.53;100786.75;1713566;83;25651;-67
2022/06/12 06:52:48;;;;;;;3.80;2.70;;;;;;;23.93;52.40;100788.12;1713489;83;27415;-67
2022/06/12 06:55:15;;;;;;;3.02;1.90;;;;;;;23.96;52.40;100777.09;1741114;81;25821;-67
2022/06/12 06:57:45;;;;;;;5.20;2.22;;;;;;;24.02;51.34;100787.98;1704783;83;25590;-67
2022/06/12 07:00:17;;;;;;;3.17;2.10;;;;;;;24.01;50.69;100785.59;1719328;82;25307;-68
2022/06/12 07:02:44;;;;;;;3.58;2.40;;;;;;;23.99;50.09;100783.22;1713053;83;25763;-68
2022/06/12 07:05:10;;;;;;;2.52;1.80;;;;;;;23.96;50.38;100781.83;1710008;82;27353;-68
2022/06/12 07:07:37;;;;;;;4.80;2.52;;;;;;;24.08;50.35;100775.95;1710693;82;25808;-68
2022/06/12 07:10:08;;;;;;;3.67;2.25;;;;;;;24.23;50.07;100768.50;1715875;82;25758;-67
2022/06/12 07:12:34;;;;;;;3.77;2.45;;;;;;;24.39;49.67;100765.36;1707990;84;25715;-68
2022/06/12 07:15:01;;;;;;;3.42;2.70;;;;;;;24.58;49.55;100771.92;1710660;82;25735;-67
2022/06/12 07:17:27;;;;;;;5.87;2.70;;;;;;;24.87;49.61;100754.56;1714840;82;27323;-69
2022/06/12 07:19:54;;;;;;;4.62;1.87;;;;;;;25.15;49.30;100756.52;1707346;83;25363;-68
2022/06/12 07:22:21;;;;;;;4.22;2.20;;;;;;;25.32;48.07;100757.10;1731575;82;25549;-68
2022/06/12 07:24:47;;;;;;;2.87;1.80;;;;;;;25.58;48.06;100755.05;1716888;81;25640;-68
2022/06/12 07:27:14;;;;;;;4.65;2.92;;;;;;;25.88;47.57;100753.16;1720796;82;25720;-68
2022/06/12 07:29:41;;;;;;;3.45;2.15;;;;;;;26.14;46.64;100748.91;1724044;83;27513;-68
2022/06/12 07:32:08;;;;;;;3.80;1.98;;;;;;;26.32;45.97;100751.55;1726899;82;25646;-69
2022/06/12 07:34:35;;;;;;;3.17;2.40;;;;;;;26.50;44.87;100748.66;1737399;81;25652;-67
2022/06/12 07:37:01;;;;;;;3.12;2.22;;;;;;;26.67;43.70;100749.75;1737359;81;25979;-67
2022/06/12 07:39:30;;;;;;;3.58;1.77;;;;;;;26.78;43.55;100749.86;1737333;81;25414;-68
2022/06/12 07:41:57;;;;;;;5.67;1.80;;;;;;;26.90;43.03;100731.11;1737159;82;27413;-68
2022/06/12 07:44:27;;;;;;;4.20;2.12;;;;;;;27.06;42.17;100743.84;1719239;81;25761;-68
2022/06/12 07:46:56;;;;;;;2.45;2.25;;;;;;;27.24;42.43;100736.70;1702722;84;25667;-68
2022/06/12 07:49:25;;;;;;;6.67;2.42;;;;;;;27.40;41.67;100744.52;1702790;84;25828;-67
2022/06/12 07:51:53;;;;;;;2.55;2.05;;;;;;;27.40;41.67;100744.52;1702966;84;25822;-68
2022/06/12 07:54:20;;;;;;;2.25;2.05;;;;;;;27.33;41.39;100743.99;1702986;84;28069;-68
2022/06/12 07:56:48;;;;;;;5.72;2.50;;;;;;;27.18;40.63;100739.16;1702695;84;25735;-69
2022/06/12 07:59:15;;;;;;;3.37;1.70;;;;;;;27.07;40.84;100741.24;1702848;84;25729;-68
2022/06/12 08:01:42;;;;;;;3.75;2.08;;;;;;;26.98;41.04;100739.56;1682710;84;25649;-65
2022/06/12 08:04:11;;;;;;;4.08;2.17;;;;;;;26.76;40.50;100750.06;1702654;84;25725;-64
2022/06/12 08:06:37;;;;;;;3.95;2.25;;;;;;;26.52;40.92;100740.11;1715092;82;28093;-65
2022/06/12 08:09:07;;;;;;;4.05;2.47;;;;;;;26.34;41.29;100743.03;1730933;82;25726;-64
2022/06/12 08:11:34;;;;;;;3.42;2.10;;;;;;;26.22;41.17;100737.36;1730970;82;25714;-65
2022/06/12 08:14:01;;;;;;;3.95;2.25;;;;;;;26.07;41.23;100744.19;1730855;82;25665;-65
2022/06/12 08:16:28;;;;;;;3.47;2.30;;;;;;;25.93;41.49;100742.83;1730979;82;25926;-63
2022/06/12 08:18:54;;;;;;;2.40;2.12;;;;;;;25.80;41.93;100733.59;1730978;82;27399;-64
2022/06/12 08:21:22;;;;;;;5.97;2.30;;;;;;;25.68;42.00;100730.67;1731035;82;25690;-64
2022/06/12 08:23:58;;;;;;;5.75;2.30;;;;;;;25.64;41.84;100731.87;1730998;82;25579;-65
2022/06/12 08:26:31;;;;;;;3.60;2.40;;;;;;;25.54;42.19;100735.68;1730732;82;25928;-66
2022/06/12 08:29:06;;;;;;;2.92;2.42;;;;;;;25.56;42.54;100739.44;1730816;82;25610;-65
2022/06/12 08:31:47;;;;;;;7.30;2.40;;;;;;;25.49;41.90;100733.92;1743342;82;27487;-66
2022/06/12 08:34:22;;;;;;;7.33;2.52;;;;;;;25.50;42.19;100729.95;1743176;82;25649;-65
2022/06/12 08:36:53;;;;;;;2.65;2.10;;;;;;;25.61;42.74;100729.33;1743416;82;25692;-66
2022/06/12 08:39:20;;;;;;;2.65;2.20;;;;;;;26.06;43.25;100730.12;1743389;82;25981;-66
2022/06/12 08:42:22;;;;;;;3.77;2.37;;;;;;;26.41;42.95;100727.72;1743297;82;25576;-63
2022/06/12 08:44:54;;;;;;;6.10;3.58;;;;;;;26.84;42.21;100730.16;1742188;82;27385;-67
2022/06/12 08:47:29;;;;;;;3.98;3.10;;;;;;;27.18;42.13;100724.50;1742062;82;25731;-66
2022/06/12 08:50:25;;;;;;;5.55;2.40;;;;;;;27.59;40.43;100730.60;1731842;82;25678;-64
2022/06/12 08:53:11;;;;;;;7.72;2.55;;;;;;;27.66;39.58;100724.17;1743252;82;25702;-65
2022/06/12 08:55:58;;;;;;;5.22;2.40;;;;;;;27.79;39.36;100733.53;1735392;82;26007;-65
2022/06/12 08:58:51;;;;;;;6.58;2.20;;;;;;;27.86;38.96;100727.09;1743461;82;27374;-64
2022/06/12 09:01:17;;;;;;;3.62;2.70;;;;;;;27.99;38.40;100720.38;1743251;82;25703;-64
2022/06/12 09:03:51;;;;;;;4.30;2.33;;;;;;;28.21;38.13;100729.98;1743489;82;25593;-64
2022/06/12 09:06:50;;;;;;;4.47;2.67;;;;;;;28.30;38.74;100716.34;1742884;82;25827;-63
2022/06/12 09:09:29;;;;;;;;;;;;;;;28.82;39.30;100701.81;1745414;82;25591;-64
2022/06/12 09:12:07;;;;;;;3.77;2.30;;;;;;;29.41;38.42;100707.30;1742871;82;27546;-63
2022/06/12 09:15:07;;;;;;;4.90;2.70;;;;;;;29.67;37.24;100706.16;1742480;82;25635;-64
2022/06/12 09:17:38;;;;;;;3.87;2.20;;;;;;;29.73;36.12;100703.83;1742826;82;25757;-62
2022/06/12 09:20:13;;;;;;;3.20;2.15;;;;;;;30.05;36.13;100695.36;1742659;82;25718;-64
2022/06/12 09:23:20;;;;;;;6.35;2.45;;;;;;;30.20;36.03;100700.00;1740975;82;25696;-64
2022/06/12 09:26:03;;;;;;;3.62;2.30;;;;;;;30.33;36.15;100690.34;1742560;82;27421;-64
2022/06/12 09:29:04;;;;;;;5.75;2.58;;;;;;;30.94;35.95;100692.22;1742777;82;25707;-64
2022/06/12 09:31:50;;;;;;;7.58;3.90;;;;;;;31.56;35.60;100691.48;1742833;82;25633;-64
2022/06/12 09:34:43;;;;;;;4.42;2.50;;;;;;;32.14;34.22;100690.52;1710891;82;25656;-63
2022/06/12 09:40:31;;;;;;;4.45;2.50;;;;;;;31.83;32.27;100683.30;1714433;83;27169;-64
2022/06/12 09:43:33;;;;;;;3.22;2.20;;;;;;;31.28;32.53;100678.50;1669396;85;26371;-64
2022/06/12 09:46:25;;;;;;;7.65;2.75;;;;;;;30.95;32.99;100674.25;1669674;85;25758;-64
2022/06/12 09:49:15;;;;;;;3.92;2.20;;;;;;;30.82;33.27;100671.36;1669905;85;25811;-67
2022/06/12 09:52:29;;;;;;;2.90;2.60;;;;;;;30.88;34.14;100668.22;1670388;85;25750;-67
2022/06/12 09:55:12;;;;;;;4.40;2.50;;;;;;;30.90;33.45;100667.16;1670074;85;27534;-67
2022/06/12 09:58:18;;;;;;;4.92;2.50;;;;;;;30.68;34.03;100671.13;1670310;85;25976;-67
2022/06/12 10:00:49;;;;;;;5.55;2.77;;;;;;;30.64;33.92;100668.44;1670376;85;25702;-67
2022/06/12 10:03:46;;;;;;;5.33;2.90;;;;;;;30.66;34.04;100662.42;1670640;85;25690;-67
2022/06/12 10:06:22;;;;;;;5.83;2.65;;;;;;;30.58;33.85;100661.03;1670592;85;25887;-67
2022/06/12 10:09:16;;;;;;;7.30;2.95;;;;;;;30.45;33.90;100660.36;1692457;84;27316;-67
2022/06/12 10:12:02;;;;;;;8.60;3.25;;;;;;;30.33;33.84;100666.01;1692391;84;25713;-66
2022/06/12 10:14:40;;;;;;;5.33;3.27;;;;;;;30.23;33.82;100659.30;1692798;84;25641;-67
2022/06/12 10:17:18;;;;;;;5.12;3.10;;;;;;;30.12;33.93;100661.75;1680195;84;25779;-67
2022/06/12 10:19:58;;;;;;;5.25;3.37;;;;;;;30.00;34.10;100662.41;1690143;81;26074;-67
2022/06/12 10:22:37;;;;;;;6.53;3.20;;;;;;;29.89;34.23;100657.09;1751814;81;27332;-67
2022/06/12 10:25:07;;;;;;;5.20;3.77;;;;;;;29.82;34.41;100651.70;1751715;81;25696;-67
2022/06/12 10:27:45;;;;;;;5.22;3.72;;;;;;;29.78;34.67;100650.97;1751544;81;25627;-67
2022/06/12 10:30:43;;;;;;;5.27;3.50;;;;;;;29.78;35.04;100647.59;1750776;81;25893;-65
2022/06/12 10:33:44;;;;;;;5.08;3.50;;;;;;;29.97;35.47;100645.19;1751512;81;25690;-66
2022/06/12 10:36:25;;;;;;;4.28;3.55;;;;;;;30.34;35.35;100643.06;1751238;81;28046;-66
2022/06/12 10:39:13;;;;;;;5.00;3.27;;;;;;;30.65;34.98;100644.90;1751440;81;25648;-65
2022/06/12 10:41:48;;;;;;;5.63;3.80;;;;;;;30.61;34.61;100640.01;1761872;81;25506;-66
2022/06/12 10:44:35;;;;;;;4.12;3.37;;;;;;;30.46;34.09;100635.43;1765507;80;25681;-66
2022/06/12 10:47:24;;;;;;;6.28;4.15;;;;;;;30.24;34.30;100637.15;1763377;80;25632;-66
2022/06/12 10:50:16;;;;;;;7.37;3.92;;;;;;;30.04;34.55;100639.43;1761719;81;27524;-66
2022/06/12 10:53:12;;;;;;;6.00;4.45;;;;;;;29.76;34.96;100634.70;1766682;81;25609;-65
2022/06/12 10:56:05;;;;;;;6.55;4.65;;;;;;;29.49;35.45;100629.31;1766891;80;25590;-66
2022/06/12 10:59:16;;;;;;;6.33;4.75;;;;;;;29.27;35.97;100628.18;1764941;80;25699;-65
2022/06/12 11:02:12;;;;;;;9.65;4.95;;;;;;;28.98;36.51;100629.53;1765943;80;25542;-64
2022/06/12 11:05:10;;;;;;;8.50;5.67;;;;;;;28.78;37.05;100629.52;1766588;80;27904;-65
2022/06/12 11:08:11;;;;;;;7.10;4.83;;;;;;;28.65;37.57;100625.16;1747930;82;25903;-66
2022/06/12 11:10:51;;;;;;;7.30;4.90;;;;;;;28.58;37.99;100623.13;1746700;82;25545;-66
2022/06/12 11:13:31;;;;;;;7.80;4.72;;;;;;;28.49;37.80;100615.31;1746768;82;26425;-66
2022/06/12 11:16:15;;;;;;;5.70;4.83;;;;;;;28.42;38.17;100614.83;1735091;82;25464;-66
2022/06/12 11:18:53;;;;;;;6.22;4.70;;;;;;;28.52;38.57;100614.47;1746422;82;28041;-66
2022/06/12 11:21:27;;;;;;;7.87;4.70;;;;;;;28.68;38.44;100608.23;1746475;82;25594;-66
2022/06/12 11:24:10;;;;;;;8.25;4.35;;;;;;;28.91;38.46;100606.60;1746787;82;25762;-65
2022/06/12 11:27:04;;;;;;;7.00;4.20;;;;;;;29.39;38.33;100608.05;1742020;82;25932;-65
2022/06/12 11:30:06;;;;;;;5.53;4.20;;;;;;;30.09;38.07;100598.47;1746789;82;25618;-66
2022/06/12 11:33:15;;;;;;;4.65;3.65;;;;;;;30.94;37.32;100602.86;1746823;82;27299;-66
2022/06/12 11:36:02;;;;;;;4.40;3.98;;;;;;;31.72;36.50;100601.16;1652890;86;25533;-66
2022/06/12 11:38:49;;;;;;;6.78;3.60;;;;;;;32.05;34.52;100606.48;1658924;86;25734;-66
2022/06/12 11:41:30;;;;;;;4.60;3.45;;;;;;;31.91;33.43;100604.94;1660634;85;25624;-66
2022/06/12 11:44:13;;;;;;;6.30;3.47;;;;;;;31.69;33.47;100606.84;1655494;86;25728;-65
2022/06/12 11:46:45;;;;;;;5.25;3.85;;;;;;;31.64;33.77;100599.81;1634357;87;27671;-65
2022/06/12 11:49:28;;;;;;;7.87;3.90;;;;;;;32.33;33.88;100596.98;1634329;87;25633;-65
2022/06/12 11:52:33;;;;;;;5.97;3.70;;;;;;;32.33;33.88;100596.98;1628484;87;25782;-65
2022/06/12 11:55:11;;;;;;;7.05;3.92;;;;;;;32.80;33.46;100609.38;1614409;87;27781;-66
2022/06/12 11:57:57;;;;;;;5.50;3.20;;;;;;;33.09;32.75;100590.26;1631399;88;25569;-66
2022/06/12 12:00:38;;;;;;;7.42;3.00;;;;;;;33.67;31.18;100579.05;1627093;88;28197;-66
2022/06/12 12:03:44;;;;;;;4.95;3.10;;;;;;;33.76;31.19;100578.92;1628053;88;25697;-66
2022/06/12 12:06:27;;;;;;;4.08;3.37;;;;;;;33.76;31.19;100578.92;1635247;86;25357;-66
2022/06/12 12:09:14;;;;;;;6.35;3.25;;;;;;;33.87;30.89;100571.63;1667235;85;25634;-66
2022/06/12 12:11:48;;;;;;;7.78;3.37;;;;;;;33.98;31.01;100564.78;1669893;85;25576;-65
2022/06/12 12:14:22;;;;;;;6.30;3.83;;;;;;;34.17;30.58;100564.95;1674992;84;27587;-66
2022/06/12 12:16:54;;;;;;;3.95;3.10;;;;;;;34.27;30.58;100564.36;1695670;84;25555;-66
2022/06/12 12:19:31;;;;;;;3.92;3.52;;;;;;;34.51;29.89;100559.53;1694950;84;25451;-66